Vliegveldwaarnemingen Nederland - (AUTO) METAR

Luchtvaartmeteorologische informatie voor operationeel gebruik en vluchtvoorbereiding is beschikbaar op www.luchtvaartmeteo.nl.

ZCZC
SA270325 EHFS     VLISSINGEN AWS   NLD   8 m.
METAR EHFS 270325Z AUTO 18020KT 5000 BR SCT005/// BKN006/// OVC007///
02/01 Q1011 REDZ=

ZCZC
SA270325 EHSG     BSA   NLD   43 m.
METAR EHSG 270325Z AUTO 21019KT //// // SCT003/// OVC004/// 03/02
Q1010 RE//=

ZCZC
SA270355 EHKD     DE KOOY/DE KOOY   NLD   1 m.
METAR EHKD 270355Z AUTO 20016KT 170V230 3900 BR FEW004 SCT005 BKN006
03/02 Q1009 YLO=

ZCZC
SA270355 EHFD     F3-FB-1   NLD   50 m.
METAR EHFD 270355Z AUTO /////KT 9999 // FEW008/// SCT011/// BKN016///
06/03 Q1006 RE//=

ZCZC
SA270355 EHAM     AMSTERDAM/SCHIPHOL   NLD   -3 m.
METAR EHAM 270355Z 20017KT 6000 -DZRA FEW007 BKN009 BKN010 02/01
Q1010 TEMPO 4000 DZRA=

ZCZC
SA270355 EHVL     VLIELAND   NLD   10 m.
METAR EHVL 270355Z AUTO 20019KT 2700 -RADZ SCT003/// BKN005///
OVC006/// 03/02 Q1008 YLO=

ZCZC
SA270355 EHJR     K13-A   NLD   37 m.
METAR EHJR 270355Z AUTO ///23KT //// // ///////// 06/05 Q1007 RE//
W07/H24=

ZCZC
SA270355 EHLE     LELYSTAD/LELYSTAD   NLD   -3 m.
METAR EHLE 270355Z AUTO 20014KT 150V230 9999 OVC013 02/00 Q1011=

ZCZC
SA270355 EHLW     LEEUWARDEN/LEEUWARDEN   NLD   1 m.
METAR EHLW 270355Z AUTO 20012KT 160V230 4300 BR FEW006 SCT009 OVC010
02/01 Q1010 REDZ GRN=

ZCZC
SA270355 EHDL     ARNHEM/DEELEN   NLD   48 m.
METAR EHDL 270355Z AUTO 19013KT 140V240 9999 FEW013 BKN015 OVC019
02/M00 Q1012 WHT=

ZCZC
SA270355 EHGG     GRONINGEN/EELDE   NLD   5 m.
METAR EHGG 270355Z AUTO 18008KT 9999 OVC018 02/M00 Q1011=

ZCZC
SA270355 EHSC     LICHTEILAND GOEREE   NLD   22 m.
METAR EHSC 270355Z AUTO 21027KT 9000 -DZ ///////// 03/02 Q1010
W06/H15=

ZCZC
SA270355 EHSA     EURO PLATFORM   NLD   19 m.
METAR EHSA 270355Z AUTO 19025KT 4800 -RADZ ///////// 04/03 Q1009
W06/H19=

ZCZC
SA270355 EHWO     WOENSDRECHT/WOENSDRECHT   NLD   19 m.
METAR EHWO 270355Z AUTO 21009KT 170V240 5000 BR SCT006 BKN007 BKN009
02/01 Q1011 YLO=

ZCZC
SA270355 EHRD     ROTTERDAM/THE HAGUE AIRPORT   NLD   -5 m.
METAR EHRD 270355Z AUTO 19014KT 160V220 2800 +DZ SCT005 BKN006 OVC008
02/01 Q1011 TEMPO 9999 -DZRA=

ZCZC
SA270355 EHGR     GILZE-RIJEN/GILZE-RIJEN   NLD   14 m.
METAR EHGR 270355Z AUTO 19013KT 140V230 //// // SCT006 BKN007 OVC009
02/01 Q1012 RE//=

ZCZC
SA270355 EHEH     EINDHOVEN/EINDHOVEN   NLD   22 m.
METAR EHEH 270355Z AUTO 19011KT 9999 FEW009 BKN011 OVC014 02/00 Q1013
REDZ GRN=

ZCZC
SA270355 EHVK     VOLKEL/VOLKEL   NLD   21 m.
METAR EHVK 270355Z AUTO 19012KT 150V240 9999 SCT014 OVC016 02/M00
Q1012 GRN=

ZCZC
SA270355 EHBK     MAASTRICHT/MAASTRICHT-AACHEN   NLD   114 m.
METAR EHBK 270355Z AUTO 20016KT 9999 FEW026 OVC033 02/M01 Q1013=

ZCZC
SA270355 EHFZ     F16-A   NLD   43 m.
METAR EHFZ 270355Z NIL=

ZCZC
SA270355 EHKV     K14-FA-1C   NLD   41 m.
METAR EHKV 270355Z AUTO 22030KT 9999 -RA FEW002 SCT003 BKN004 06/05
Q1006=

ZCZC
SA270355 EHMG     L9-FF-1   NLD   44 m.
METAR EHMG 270355Z AUTO 21030KT 6000 -DZ FEW004 SCT005 BKN006
FEW015CB 04/03 Q1009 REDZ=

ZCZC
SA270355 EHMA     AWG-1   NLD   40 m.
METAR EHMA 270355Z AUTO 21025KT 180V260 9999 FEW008 SCT011 BKN020
03/01 Q1009=

ZCZC
SA270355 EHDV     D15-FA-1   NLD   42 m.
METAR EHDV 270355Z AUTO 25014KT 200V310 3200 DZ FEW001/// SCT003///
BKN004/// 06/06 Q1005=

ZCZC
SA270355 EHAK     A12-CPP   NLD   48 m.
METAR EHAK 270355Z AUTO 17010KT 9999 FEW008/// BKN015/// BKN020///
05/04 Q1005=

ZCZC
SA270355 EHQE     HOORN-A   NLD   50 m.
METAR EHQE 270355Z AUTO 17028KT 5000 -UP FEW004 SCT005 BKN006 04/03
Q1008=

ZCZC
SA270355 EHJA     J6-A   NLD   45 m.
METAR EHJA 270355Z AUTO 23021KT 9999 SCT003/// BKN004/// BKN005///
06/05 Q1006=

ZCZC
SA270355 EHPG     P11-B   NLD   41 m.
METAR EHPG 270355Z AUTO VRB30KT 9000 FEW003 BKN004 OVC005 05/04
Q1007=

ZCZC
SA270355 EHHW     BUITENGAATS/BG-OHVS2      42 m.
METAR EHHW 270355Z AUTO 22021KT 9999 FEW008/// BKN009/// BKN011///
04/01 Q1009=

27/01/2021 05.00 uur LT